sensor_id;sensor_type;location;lat;lon;timestamp;P1;durP1;ratioP1;P2;durP2;ratioP2
65871;SDS011;52653;50.080;21.992;2024-02-14T00:00:07;28.10;;;17.60;;
65871;SDS011;52653;50.080;21.992;2024-02-14T00:03:24;23.80;;;16.30;;
65871;SDS011;52653;50.080;21.992;2024-02-14T00:06:16;24.80;;;16.20;;
65871;SDS011;52653;50.080;21.992;2024-02-14T00:09:10;25.60;;;16.00;;
65871;SDS011;52653;50.080;21.992;2024-02-14T00:12:03;25.00;;;16.30;;
65871;SDS011;52653;50.080;21.992;2024-02-14T00:14:59;23.50;;;15.30;;
65871;SDS011;52653;50.080;21.992;2024-02-14T00:17:59;21.10;;;15.40;;
65871;SDS011;52653;50.080;21.992;2024-02-14T00:20:54;21.60;;;14.10;;
65871;SDS011;52653;50.080;21.992;2024-02-14T00:23:46;20.70;;;14.10;;
65871;SDS011;52653;50.080;21.992;2024-02-14T00:26:39;20.10;;;14.40;;
65871;SDS011;52653;50.080;21.992;2024-02-14T00:29:24;20.50;;;14.10;;
65871;SDS011;52653;50.080;21.992;2024-02-14T00:32:17;19.90;;;13.10;;
65871;SDS011;52653;50.080;21.992;2024-02-14T00:35:02;21.20;;;14.50;;
65871;SDS011;52653;50.080;21.992;2024-02-14T00:37:55;22.60;;;14.70;;
65871;SDS011;52653;50.080;21.992;2024-02-14T00:40:48;20.90;;;14.20;;
65871;SDS011;52653;50.080;21.992;2024-02-14T00:43:40;22.80;;;14.60;;
65871;SDS011;52653;50.080;21.992;2024-02-14T00:46:33;22.40;;;14.00;;
65871;SDS011;52653;50.080;21.992;2024-02-14T00:49:25;25.60;;;15.40;;
65871;SDS011;52653;50.080;21.992;2024-02-14T00:52:18;23.10;;;15.10;;
65871;SDS011;52653;50.080;21.992;2024-02-14T00:55:11;24.70;;;16.30;;
65871;SDS011;52653;50.080;21.992;2024-02-14T00:58:04;22.40;;;16.00;;
65871;SDS011;52653;50.080;21.992;2024-02-14T01:00:56;25.30;;;15.80;;
65871;SDS011;52653;50.080;21.992;2024-02-14T01:03:49;24.10;;;16.80;;
65871;SDS011;52653;50.080;21.992;2024-02-14T01:06:41;25.20;;;16.80;;
65871;SDS011;52653;50.080;21.992;2024-02-14T01:09:24;25.00;;;16.70;;
65871;SDS011;52653;50.080;21.992;2024-02-14T01:12:09;23.50;;;15.90;;
65871;SDS011;52653;50.080;21.992;2024-02-14T01:15:02;25.00;;;16.20;;
65871;SDS011;52653;50.080;21.992;2024-02-14T01:17:56;24.90;;;17.00;;
65871;SDS011;52653;50.080;21.992;2024-02-14T01:20:48;24.90;;;16.50;;
65871;SDS011;52653;50.080;21.992;2024-02-14T01:23:24;26.00;;;17.10;;
65871;SDS011;52653;50.080;21.992;2024-02-14T01:26:01;23.70;;;16.20;;
65871;SDS011;52653;50.080;21.992;2024-02-14T01:28:35;27.10;;;17.40;;
65871;SDS011;52653;50.080;21.992;2024-02-14T01:31:11;24.90;;;16.30;;
65871;SDS011;52653;50.080;21.992;2024-02-14T01:34:03;25.30;;;16.50;;
65871;SDS011;52653;50.080;21.992;2024-02-14T01:36:46;26.10;;;16.60;;
65871;SDS011;52653;50.080;21.992;2024-02-14T01:39:21;22.30;;;15.10;;
65871;SDS011;52653;50.080;21.992;2024-02-14T01:42:13;21.10;;;14.90;;
65871;SDS011;52653;50.080;21.992;2024-02-14T01:44:48;22.50;;;15.00;;
65871;SDS011;52653;50.080;21.992;2024-02-14T01:47:41;22.20;;;15.60;;
65871;SDS011;52653;50.080;21.992;2024-02-14T01:50:23;22.80;;;14.40;;
65871;SDS011;52653;50.080;21.992;2024-02-14T01:53:03;21.60;;;14.70;;
65871;SDS011;52653;50.080;21.992;2024-02-14T01:55:56;23.10;;;15.40;;
65871;SDS011;52653;50.080;21.992;2024-02-14T01:58:49;18.60;;;13.20;;
65871;SDS011;52653;50.080;21.992;2024-02-14T02:01:43;20.70;;;13.40;;
65871;SDS011;52653;50.080;21.992;2024-02-14T02:04:36;19.90;;;12.20;;
65871;SDS011;52653;50.080;21.992;2024-02-14T02:07:28;16.70;;;11.10;;
65871;SDS011;52653;50.080;21.992;2024-02-14T02:10:10;16.40;;;10.80;;
65871;SDS011;52653;50.080;21.992;2024-02-14T02:13:02;16.40;;;10.80;;
65871;SDS011;52653;50.080;21.992;2024-02-14T02:15:45;15.40;;;10.20;;
65871;SDS011;52653;50.080;21.992;2024-02-14T02:18:17;15.20;;;9.90;;
65871;SDS011;52653;50.080;21.992;2024-02-14T02:21:00;17.40;;;10.40;;
65871;SDS011;52653;50.080;21.992;2024-02-14T02:23:56;14.10;;;9.50;;
65871;SDS011;52653;50.080;21.992;2024-02-14T02:26:32;14.70;;;10.10;;
65871;SDS011;52653;50.080;21.992;2024-02-14T02:29:15;16.40;;;9.90;;
65871;SDS011;52653;50.080;21.992;2024-02-14T02:32:09;15.70;;;10.20;;
65871;SDS011;52653;50.080;21.992;2024-02-14T02:35:00;15.60;;;10.20;;
65871;SDS011;52653;50.080;21.992;2024-02-14T02:37:54;16.70;;;10.60;;
65871;SDS011;52653;50.080;21.992;2024-02-14T02:40:46;15.40;;;9.70;;
65871;SDS011;52653;50.080;21.992;2024-02-14T02:43:39;15.90;;;10.50;;
65871;SDS011;52653;50.080;21.992;2024-02-14T02:46:24;15.00;;;9.50;;
65871;SDS011;52653;50.080;21.992;2024-02-14T02:49:17;15.00;;;9.40;;
65871;SDS011;52653;50.080;21.992;2024-02-14T02:52:00;13.90;;;9.80;;
65871;SDS011;52653;50.080;21.992;2024-02-14T02:54:53;14.20;;;9.20;;
65871;SDS011;52653;50.080;21.992;2024-02-14T02:57:45;17.20;;;10.30;;
65871;SDS011;52653;50.080;21.992;2024-02-14T03:00:38;14.70;;;9.30;;
65871;SDS011;52653;50.080;21.992;2024-02-14T03:03:31;15.80;;;9.30;;
65871;SDS011;52653;50.080;21.992;2024-02-14T03:06:23;14.90;;;9.60;;
65871;SDS011;52653;50.080;21.992;2024-02-14T03:09:16;14.70;;;9.70;;
65871;SDS011;52653;50.080;21.992;2024-02-14T03:12:09;13.70;;;9.50;;
65871;SDS011;52653;50.080;21.992;2024-02-14T03:14:55;13.90;;;9.20;;
65871;SDS011;52653;50.080;21.992;2024-02-14T03:17:31;15.10;;;9.30;;
65871;SDS011;52653;50.080;21.992;2024-02-14T03:20:07;17.90;;;9.80;;
65871;SDS011;52653;50.080;21.992;2024-02-14T03:23:06;14.30;;;9.90;;
65871;SDS011;52653;50.080;21.992;2024-02-14T03:25:44;17.10;;;10.50;;
65871;SDS011;52653;50.080;21.992;2024-02-14T03:28:28;16.40;;;10.60;;
65871;SDS011;52653;50.080;21.992;2024-02-14T03:31:11;16.10;;;10.70;;
65871;SDS011;52653;50.080;21.992;2024-02-14T03:33:58;19.40;;;11.20;;
65871;SDS011;52653;50.080;21.992;2024-02-14T03:36:44;18.30;;;11.70;;
65871;SDS011;52653;50.080;21.992;2024-02-14T03:39:37;15.70;;;10.20;;
65871;SDS011;52653;50.080;21.992;2024-02-14T03:42:29;16.90;;;11.50;;
65871;SDS011;52653;50.080;21.992;2024-02-14T03:45:05;17.30;;;11.20;;
65871;SDS011;52653;50.080;21.992;2024-02-14T03:47:52;17.20;;;10.20;;
65871;SDS011;52653;50.080;21.992;2024-02-14T03:50:33;14.20;;;10.00;;
65871;SDS011;52653;50.080;21.992;2024-02-14T03:53:15;16.10;;;10.10;;
65871;SDS011;52653;50.080;21.992;2024-02-14T03:55:50;16.60;;;10.70;;
65871;SDS011;52653;50.080;21.992;2024-02-14T03:58:33;16.30;;;9.90;;
65871;SDS011;52653;50.080;21.992;2024-02-14T04:01:06;15.70;;;9.80;;
65871;SDS011;52653;50.080;21.992;2024-02-14T04:03:59;16.40;;;11.00;;
65871;SDS011;52653;50.080;21.992;2024-02-14T04:06:31;16.80;;;10.00;;
65871;SDS011;52653;50.080;21.992;2024-02-14T04:09:13;16.80;;;10.70;;
65871;SDS011;52653;50.080;21.992;2024-02-14T04:11:46;17.70;;;10.50;;
65871;SDS011;52653;50.080;21.992;2024-02-14T04:14:31;15.70;;;10.30;;
65871;SDS011;52653;50.080;21.992;2024-02-14T04:17:24;16.10;;;11.20;;
65871;SDS011;52653;50.080;21.992;2024-02-14T04:20:16;18.70;;;11.10;;
65871;SDS011;52653;50.080;21.992;2024-02-14T04:23:09;18.70;;;11.80;;
65871;SDS011;52653;50.080;21.992;2024-02-14T04:26:01;17.20;;;11.20;;
65871;SDS011;52653;50.080;21.992;2024-02-14T04:28:45;19.50;;;11.30;;
65871;SDS011;52653;50.080;21.992;2024-02-14T04:31:38;16.50;;;11.10;;
65871;SDS011;52653;50.080;21.992;2024-02-14T04:34:21;17.10;;;10.90;;
65871;SDS011;52653;50.080;21.992;2024-02-14T04:37:14;16.80;;;10.30;;
65871;SDS011;52653;50.080;21.992;2024-02-14T04:40:09;15.60;;;10.30;;
65871;SDS011;52653;50.080;21.992;2024-02-14T04:43:02;18.60;;;11.40;;
65871;SDS011;52653;50.080;21.992;2024-02-14T04:45:55;16.50;;;11.10;;
65871;SDS011;52653;50.080;21.992;2024-02-14T04:48:47;17.10;;;11.70;;
65871;SDS011;52653;50.080;21.992;2024-02-14T04:51:34;21.00;;;11.40;;
65871;SDS011;52653;50.080;21.992;2024-02-14T04:54:26;18.80;;;12.10;;
65871;SDS011;52653;50.080;21.992;2024-02-14T04:57:19;22.10;;;12.40;;
65871;SDS011;52653;50.080;21.992;2024-02-14T05:00:12;17.10;;;11.60;;
65871;SDS011;52653;50.080;21.992;2024-02-14T05:03:06;18.10;;;12.20;;
65871;SDS011;52653;50.080;21.992;2024-02-14T05:05:59;19.40;;;13.20;;
65871;SDS011;52653;50.080;21.992;2024-02-14T05:08:52;21.20;;;14.10;;
65871;SDS011;52653;50.080;21.992;2024-02-14T05:11:45;20.90;;;12.80;;
65871;SDS011;52653;50.080;21.992;2024-02-14T05:14:38;18.30;;;12.60;;
65871;SDS011;52653;50.080;21.992;2024-02-14T05:17:31;17.50;;;12.50;;
65871;SDS011;52653;50.080;21.992;2024-02-14T05:20:24;19.10;;;12.40;;
65871;SDS011;52653;50.080;21.992;2024-02-14T05:23:16;20.40;;;13.70;;
65871;SDS011;52653;50.080;21.992;2024-02-14T05:26:09;20.10;;;13.00;;
65871;SDS011;52653;50.080;21.992;2024-02-14T05:29:01;18.60;;;12.80;;
65871;SDS011;52653;50.080;21.992;2024-02-14T05:31:47;18.20;;;12.20;;
65871;SDS011;52653;50.080;21.992;2024-02-14T05:34:32;17.70;;;12.30;;
65871;SDS011;52653;50.080;21.992;2024-02-14T05:37:25;16.90;;;12.00;;
65871;SDS011;52653;50.080;21.992;2024-02-14T05:40:17;17.40;;;12.60;;
65871;SDS011;52653;50.080;21.992;2024-02-14T05:43:10;19.60;;;12.60;;
65871;SDS011;52653;50.080;21.992;2024-02-14T05:46:03;19.20;;;11.60;;
65871;SDS011;52653;50.080;21.992;2024-02-14T05:48:55;19.30;;;11.70;;
65871;SDS011;52653;50.080;21.992;2024-02-14T05:51:48;17.60;;;11.20;;
65871;SDS011;52653;50.080;21.992;2024-02-14T05:54:42;21.50;;;12.40;;
65871;SDS011;52653;50.080;21.992;2024-02-14T05:57:35;22.30;;;12.60;;
65871;SDS011;52653;50.080;21.992;2024-02-14T06:00:09;22.40;;;12.90;;
65871;SDS011;52653;50.080;21.992;2024-02-14T06:02:56;28.00;;;14.60;;
65871;SDS011;52653;50.080;21.992;2024-02-14T06:05:49;32.80;;;16.00;;
65871;SDS011;52653;50.080;21.992;2024-02-14T06:08:42;34.80;;;14.80;;
65871;SDS011;52653;50.080;21.992;2024-02-14T06:11:35;32.90;;;16.30;;
65871;SDS011;52653;50.080;21.992;2024-02-14T06:14:29;27.40;;;13.90;;
65871;SDS011;52653;50.080;21.992;2024-02-14T06:17:23;29.30;;;13.60;;
65871;SDS011;52653;50.080;21.992;2024-02-14T06:20:16;20.20;;;11.70;;
65871;SDS011;52653;50.080;21.992;2024-02-14T06:23:09;16.90;;;11.10;;
65871;SDS011;52653;50.080;21.992;2024-02-14T06:26:01;17.20;;;10.90;;
65871;SDS011;52653;50.080;21.992;2024-02-14T06:28:54;21.80;;;12.10;;
65871;SDS011;52653;50.080;21.992;2024-02-14T06:31:47;28.60;;;19.90;;
65871;SDS011;52653;50.080;21.992;2024-02-14T06:34:40;70.50;;;58.30;;
65871;SDS011;52653;50.080;21.992;2024-02-14T06:37:33;41.10;;;33.50;;
65871;SDS011;52653;50.080;21.992;2024-02-14T06:40:40;23.60;;;15.80;;
65871;SDS011;52653;50.080;21.992;2024-02-14T06:43:33;22.50;;;14.60;;
65871;SDS011;52653;50.080;21.992;2024-02-14T06:46:28;24.70;;;15.70;;
65871;SDS011;52653;50.080;21.992;2024-02-14T06:49:21;23.20;;;14.50;;
65871;SDS011;52653;50.080;21.992;2024-02-14T06:52:13;24.80;;;17.20;;
65871;SDS011;52653;50.080;21.992;2024-02-14T06:55:06;23.70;;;16.50;;
65871;SDS011;52653;50.080;21.992;2024-02-14T06:58:00;22.60;;;15.30;;
65871;SDS011;52653;50.080;21.992;2024-02-14T07:00:54;22.10;;;15.10;;
65871;SDS011;52653;50.080;21.992;2024-02-14T07:03:40;27.90;;;15.80;;
65871;SDS011;52653;50.080;21.992;2024-02-14T07:06:32;23.30;;;14.30;;
65871;SDS011;52653;50.080;21.992;2024-02-14T07:09:25;23.60;;;15.00;;
65871;SDS011;52653;50.080;21.992;2024-02-14T07:12:18;23.90;;;15.60;;
65871;SDS011;52653;50.080;21.992;2024-02-14T07:15:04;24.80;;;15.70;;
65871;SDS011;52653;50.080;21.992;2024-02-14T07:17:38;28.20;;;18.40;;
65871;SDS011;52653;50.080;21.992;2024-02-14T07:20:22;32.90;;;21.50;;
65871;SDS011;52653;50.080;21.992;2024-02-14T07:23:16;21.60;;;15.10;;
65871;SDS011;52653;50.080;21.992;2024-02-14T07:26:09;21.40;;;14.90;;
65871;SDS011;52653;50.080;21.992;2024-02-14T07:29:01;22.40;;;13.80;;
65871;SDS011;52653;50.080;21.992;2024-02-14T07:31:54;21.40;;;13.60;;
65871;SDS011;52653;50.080;21.992;2024-02-14T07:34:48;20.40;;;14.30;;
65871;SDS011;52653;50.080;21.992;2024-02-14T07:37:40;22.80;;;14.20;;
65871;SDS011;52653;50.080;21.992;2024-02-14T07:40:34;21.50;;;14.30;;
65871;SDS011;52653;50.080;21.992;2024-02-14T07:43:28;20.90;;;13.80;;
65871;SDS011;52653;50.080;21.992;2024-02-14T07:46:21;21.90;;;13.80;;
65871;SDS011;52653;50.080;21.992;2024-02-14T07:49:16;23.20;;;14.70;;
65871;SDS011;52653;50.080;21.992;2024-02-14T07:52:08;22.80;;;13.80;;
65871;SDS011;52653;50.080;21.992;2024-02-14T07:55:01;21.50;;;14.80;;
65871;SDS011;52653;50.080;21.992;2024-02-14T07:57:53;22.30;;;15.70;;
65871;SDS011;52653;50.080;21.992;2024-02-14T08:00:46;22.30;;;15.40;;
65871;SDS011;52653;50.080;21.992;2024-02-14T08:03:38;22.10;;;15.10;;
65871;SDS011;52653;50.080;21.992;2024-02-14T08:06:32;23.90;;;14.40;;
65871;SDS011;52653;50.080;21.992;2024-02-14T08:09:24;20.70;;;14.10;;
65871;SDS011;52653;50.080;21.992;2024-02-14T08:12:17;23.00;;;13.30;;
65871;SDS011;52653;50.080;21.992;2024-02-14T08:15:10;20.50;;;12.90;;
65871;SDS011;52653;50.080;21.992;2024-02-14T08:18:03;21.30;;;14.30;;
65871;SDS011;52653;50.080;21.992;2024-02-14T08:20:59;20.60;;;13.90;;
65871;SDS011;52653;50.080;21.992;2024-02-14T08:23:51;20.60;;;13.40;;
65871;SDS011;52653;50.080;21.992;2024-02-14T08:26:44;18.80;;;13.30;;
65871;SDS011;52653;50.080;21.992;2024-02-14T08:29:36;21.20;;;13.40;;
65871;SDS011;52653;50.080;21.992;2024-02-14T08:32:31;20.20;;;12.60;;
65871;SDS011;52653;50.080;21.992;2024-02-14T08:35:24;21.50;;;13.90;;
65871;SDS011;52653;50.080;21.992;2024-02-14T08:38:17;22.40;;;13.80;;
65871;SDS011;52653;50.080;21.992;2024-02-14T08:41:09;20.80;;;13.20;;
65871;SDS011;52653;50.080;21.992;2024-02-14T08:44:03;19.80;;;12.60;;
65871;SDS011;52653;50.080;21.992;2024-02-14T08:46:46;16.40;;;11.10;;
65871;SDS011;52653;50.080;21.992;2024-02-14T08:49:40;19.90;;;12.90;;
65871;SDS011;52653;50.080;21.992;2024-02-14T08:52:34;16.20;;;10.20;;
65871;SDS011;52653;50.080;21.992;2024-02-14T08:55:27;17.80;;;10.90;;
65871;SDS011;52653;50.080;21.992;2024-02-14T08:58:21;18.30;;;12.20;;
65871;SDS011;52653;50.080;21.992;2024-02-14T09:01:14;18.60;;;11.50;;
65871;SDS011;52653;50.080;21.992;2024-02-14T09:04:06;18.10;;;10.80;;
65871;SDS011;52653;50.080;21.992;2024-02-14T09:06:59;16.60;;;11.40;;
65871;SDS011;52653;50.080;21.992;2024-02-14T09:09:51;18.70;;;11.30;;
65871;SDS011;52653;50.080;21.992;2024-02-14T09:12:44;19.30;;;10.70;;
65871;SDS011;52653;50.080;21.992;2024-02-14T09:15:36;21.40;;;12.40;;
65871;SDS011;52653;50.080;21.992;2024-02-14T09:18:29;15.00;;;10.00;;
65871;SDS011;52653;50.080;21.992;2024-02-14T09:21:22;18.70;;;11.60;;
65871;SDS011;52653;50.080;21.992;2024-02-14T09:24:14;18.70;;;10.30;;
65871;SDS011;52653;50.080;21.992;2024-02-14T09:27:07;15.40;;;9.30;;
65871;SDS011;52653;50.080;21.992;2024-02-14T09:30:03;15.90;;;9.50;;
65871;SDS011;52653;50.080;21.992;2024-02-14T09:32:57;18.30;;;11.30;;
65871;SDS011;52653;50.080;21.992;2024-02-14T09:35:50;17.20;;;10.60;;
65871;SDS011;52653;50.080;21.992;2024-02-14T09:38:43;13.90;;;9.00;;
65871;SDS011;52653;50.080;21.992;2024-02-14T09:41:37;16.80;;;10.30;;
65871;SDS011;52653;50.080;21.992;2024-02-14T09:44:33;16.00;;;9.30;;
65871;SDS011;52653;50.080;21.992;2024-02-14T09:47:28;17.10;;;8.10;;
65871;SDS011;52653;50.080;21.992;2024-02-14T09:50:23;12.70;;;6.90;;
65871;SDS011;52653;50.080;21.992;2024-02-14T09:53:17;14.20;;;7.30;;
65871;SDS011;52653;50.080;21.992;2024-02-14T09:56:10;12.40;;;7.10;;
65871;SDS011;52653;50.080;21.992;2024-02-14T09:59:04;12.80;;;6.50;;
65871;SDS011;52653;50.080;21.992;2024-02-14T10:01:59;8.90;;;5.20;;
65871;SDS011;52653;50.080;21.992;2024-02-14T10:04:52;8.50;;;5.10;;
65871;SDS011;52653;50.080;21.992;2024-02-14T10:07:45;10.00;;;5.50;;
65871;SDS011;52653;50.080;21.992;2024-02-14T10:10:38;8.80;;;5.60;;
65871;SDS011;52653;50.080;21.992;2024-02-14T10:13:31;7.20;;;3.00;;
65871;SDS011;52653;50.080;21.992;2024-02-14T10:16:23;11.20;;;5.00;;
65871;SDS011;52653;50.080;21.992;2024-02-14T10:19:18;10.90;;;5.60;;
65871;SDS011;52653;50.080;21.992;2024-02-14T10:22:14;8.30;;;4.10;;
65871;SDS011;52653;50.080;21.992;2024-02-14T10:25:07;5.40;;;2.30;;
65871;SDS011;52653;50.080;21.992;2024-02-14T10:28:04;7.70;;;3.30;;
65871;SDS011;52653;50.080;21.992;2024-02-14T10:30:58;7.70;;;4.60;;
65871;SDS011;52653;50.080;21.992;2024-02-14T10:33:51;9.50;;;5.50;;
65871;SDS011;52653;50.080;21.992;2024-02-14T10:36:45;7.10;;;3.10;;
65871;SDS011;52653;50.080;21.992;2024-02-14T10:39:40;9.20;;;4.10;;
65871;SDS011;52653;50.080;21.992;2024-02-14T10:42:34;7.80;;;4.30;;
65871;SDS011;52653;50.080;21.992;2024-02-14T10:45:20;7.60;;;4.80;;
65871;SDS011;52653;50.080;21.992;2024-02-14T10:48:12;10.60;;;8.40;;
65871;SDS011;52653;50.080;21.992;2024-02-14T10:51:06;8.60;;;3.70;;
65871;SDS011;52653;50.080;21.992;2024-02-14T10:54:07;6.70;;;4.30;;
65871;SDS011;52653;50.080;21.992;2024-02-14T10:57:04;9.90;;;5.10;;
65871;SDS011;52653;50.080;21.992;2024-02-14T10:59:52;6.80;;;3.80;;
65871;SDS011;52653;50.080;21.992;2024-02-14T11:02:37;14.20;;;7.10;;
65871;SDS011;52653;50.080;21.992;2024-02-14T11:05:14;7.50;;;3.70;;
65871;SDS011;52653;50.080;21.992;2024-02-14T11:08:09;9.00;;;4.40;;
65871;SDS011;52653;50.080;21.992;2024-02-14T11:11:06;8.00;;;3.80;;
65871;SDS011;52653;50.080;21.992;2024-02-14T11:13:58;7.40;;;4.10;;
65871;SDS011;52653;50.080;21.992;2024-02-14T11:16:51;6.20;;;3.20;;
65871;SDS011;52653;50.080;21.992;2024-02-14T11:19:32;6.20;;;2.90;;
65871;SDS011;52653;50.080;21.992;2024-02-14T11:22:33;5.90;;;2.20;;
65871;SDS011;52653;50.080;21.992;2024-02-14T11:25:29;11.20;;;5.00;;
65871;SDS011;52653;50.080;21.992;2024-02-14T11:28:14;6.80;;;3.10;;
65871;SDS011;52653;50.080;21.992;2024-02-14T11:30:49;7.80;;;2.60;;
65871;SDS011;52653;50.080;21.992;2024-02-14T11:33:42;6.10;;;3.30;;
65871;SDS011;52653;50.080;21.992;2024-02-14T11:36:36;13.30;;;7.30;;
65871;SDS011;52653;50.080;21.992;2024-02-14T11:39:21;10.00;;;4.50;;
65871;SDS011;52653;50.080;21.992;2024-02-14T11:42:14;7.40;;;3.40;;
65871;SDS011;52653;50.080;21.992;2024-02-14T11:45:07;10.50;;;4.90;;
65871;SDS011;52653;50.080;21.992;2024-02-14T11:48:00;11.70;;;5.30;;
65871;SDS011;52653;50.080;21.992;2024-02-14T11:50:53;9.50;;;4.00;;
65871;SDS011;52653;50.080;21.992;2024-02-14T11:53:46;8.30;;;4.20;;
65871;SDS011;52653;50.080;21.992;2024-02-14T11:56:38;5.90;;;2.80;;
65871;SDS011;52653;50.080;21.992;2024-02-14T11:59:31;7.00;;;3.60;;
65871;SDS011;52653;50.080;21.992;2024-02-14T12:02:23;6.90;;;3.20;;
65871;SDS011;52653;50.080;21.992;2024-02-14T12:05:16;7.00;;;3.50;;
65871;SDS011;52653;50.080;21.992;2024-02-14T12:08:09;7.30;;;3.00;;
65871;SDS011;52653;50.080;21.992;2024-02-14T12:11:02;6.70;;;3.10;;
65871;SDS011;52653;50.080;21.992;2024-02-14T12:14:06;9.10;;;3.60;;
65871;SDS011;52653;50.080;21.992;2024-02-14T12:17:00;8.50;;;4.50;;
65871;SDS011;52653;50.080;21.992;2024-02-14T12:19:53;6.10;;;3.20;;
65871;SDS011;52653;50.080;21.992;2024-02-14T12:22:55;7.60;;;3.80;;
65871;SDS011;52653;50.080;21.992;2024-02-14T12:25:48;5.60;;;3.00;;
65871;SDS011;52653;50.080;21.992;2024-02-14T12:28:29;7.70;;;3.30;;
65871;SDS011;52653;50.080;21.992;2024-02-14T12:31:24;8.50;;;4.80;;
65871;SDS011;52653;50.080;21.992;2024-02-14T12:34:17;8.50;;;3.80;;
65871;SDS011;52653;50.080;21.992;2024-02-14T12:37:14;9.30;;;4.20;;
65871;SDS011;52653;50.080;21.992;2024-02-14T12:40:08;7.40;;;3.20;;
65871;SDS011;52653;50.080;21.992;2024-02-14T12:43:00;7.90;;;3.50;;
65871;SDS011;52653;50.080;21.992;2024-02-14T12:45:52;8.50;;;3.70;;
65871;SDS011;52653;50.080;21.992;2024-02-14T12:48:45;7.00;;;3.60;;
65871;SDS011;52653;50.080;21.992;2024-02-14T12:51:38;6.90;;;2.90;;
65871;SDS011;52653;50.080;21.992;2024-02-14T12:54:30;6.70;;;3.40;;
65871;SDS011;52653;50.080;21.992;2024-02-14T12:57:04;6.20;;;3.10;;
65871;SDS011;52653;50.080;21.992;2024-02-14T12:59:56;7.00;;;3.40;;
65871;SDS011;52653;50.080;21.992;2024-02-14T13:02:49;5.30;;;2.70;;
65871;SDS011;52653;50.080;21.992;2024-02-14T13:05:44;6.00;;;2.50;;
65871;SDS011;52653;50.080;21.992;2024-02-14T13:08:27;6.00;;;3.00;;
65871;SDS011;52653;50.080;21.992;2024-02-14T13:11:20;6.50;;;3.20;;
65871;SDS011;52653;50.080;21.992;2024-02-14T13:13:55;6.40;;;3.10;;
65871;SDS011;52653;50.080;21.992;2024-02-14T13:16:47;5.20;;;2.80;;
65871;SDS011;52653;50.080;21.992;2024-02-14T13:19:40;5.30;;;2.60;;
65871;SDS011;52653;50.080;21.992;2024-02-14T13:22:33;5.90;;;2.60;;
65871;SDS011;52653;50.080;21.992;2024-02-14T13:25:26;5.60;;;2.70;;
65871;SDS011;52653;50.080;21.992;2024-02-14T13:28:18;6.70;;;3.00;;
65871;SDS011;52653;50.080;21.992;2024-02-14T13:31:11;6.70;;;2.70;;
65871;SDS011;52653;50.080;21.992;2024-02-14T13:34:04;6.20;;;2.80;;
65871;SDS011;52653;50.080;21.992;2024-02-14T13:36:58;6.40;;;2.90;;
65871;SDS011;52653;50.080;21.992;2024-02-14T13:39:52;5.90;;;2.80;;
65871;SDS011;52653;50.080;21.992;2024-02-14T13:42:44;6.90;;;3.20;;
65871;SDS011;52653;50.080;21.992;2024-02-14T13:45:43;5.50;;;2.70;;
65871;SDS011;52653;50.080;21.992;2024-02-14T13:48:38;7.20;;;3.00;;
65871;SDS011;52653;50.080;21.992;2024-02-14T13:51:30;6.10;;;3.10;;
65871;SDS011;52653;50.080;21.992;2024-02-14T13:54:23;7.90;;;3.60;;
65871;SDS011;52653;50.080;21.992;2024-02-14T13:57:16;6.70;;;3.20;;
65871;SDS011;52653;50.080;21.992;2024-02-14T14:00:09;6.20;;;3.20;;
65871;SDS011;52653;50.080;21.992;2024-02-14T14:03:03;6.70;;;3.20;;
65871;SDS011;52653;50.080;21.992;2024-02-14T14:05:56;10.10;;;3.20;;
65871;SDS011;52653;50.080;21.992;2024-02-14T14:08:50;8.50;;;3.20;;
65871;SDS011;52653;50.080;21.992;2024-02-14T14:11:44;8.90;;;3.60;;
65871;SDS011;52653;50.080;21.992;2024-02-14T14:14:39;7.70;;;2.90;;
65871;SDS011;52653;50.080;21.992;2024-02-14T14:17:32;8.50;;;3.40;;
65871;SDS011;52653;50.080;21.992;2024-02-14T14:20:24;8.00;;;3.10;;
65871;SDS011;52653;50.080;21.992;2024-02-14T14:23:17;5.90;;;3.30;;
65871;SDS011;52653;50.080;21.992;2024-02-14T14:26:09;8.90;;;3.90;;
65871;SDS011;52653;50.080;21.992;2024-02-14T14:29:03;9.40;;;3.70;;
65871;SDS011;52653;50.080;21.992;2024-02-14T14:31:55;7.20;;;3.40;;
65871;SDS011;52653;50.080;21.992;2024-02-14T14:34:48;7.80;;;3.80;;
65871;SDS011;52653;50.080;21.992;2024-02-14T14:37:33;8.20;;;3.50;;
65871;SDS011;52653;50.080;21.992;2024-02-14T14:40:26;7.80;;;3.50;;
65871;SDS011;52653;50.080;21.992;2024-02-14T14:43:19;7.80;;;4.30;;
65871;SDS011;52653;50.080;21.992;2024-02-14T14:46:11;9.40;;;4.50;;
65871;SDS011;52653;50.080;21.992;2024-02-14T14:48:45;8.70;;;4.40;;
65871;SDS011;52653;50.080;21.992;2024-02-14T14:51:37;8.20;;;3.90;;
65871;SDS011;52653;50.080;21.992;2024-02-14T14:54:30;7.70;;;3.90;;
65871;SDS011;52653;50.080;21.992;2024-02-14T14:57:16;7.00;;;4.00;;
65871;SDS011;52653;50.080;21.992;2024-02-14T15:00:08;7.50;;;3.60;;
65871;SDS011;52653;50.080;21.992;2024-02-14T15:03:02;8.10;;;4.90;;
65871;SDS011;52653;50.080;21.992;2024-02-14T15:05:56;8.20;;;4.50;;
65871;SDS011;52653;50.080;21.992;2024-02-14T15:08:49;8.30;;;4.20;;
65871;SDS011;52653;50.080;21.992;2024-02-14T15:11:42;10.00;;;5.60;;
65871;SDS011;52653;50.080;21.992;2024-02-14T15:14:35;13.00;;;6.00;;
65871;SDS011;52653;50.080;21.992;2024-02-14T15:17:18;10.40;;;6.10;;
65871;SDS011;52653;50.080;21.992;2024-02-14T15:20:12;10.40;;;6.10;;
65871;SDS011;52653;50.080;21.992;2024-02-14T15:23:05;9.50;;;5.40;;
65871;SDS011;52653;50.080;21.992;2024-02-14T15:25:50;9.90;;;5.60;;
65871;SDS011;52653;50.080;21.992;2024-02-14T15:28:53;11.90;;;6.70;;
65871;SDS011;52653;50.080;21.992;2024-02-14T15:32:06;10.60;;;6.80;;
65871;SDS011;52653;50.080;21.992;2024-02-14T15:35:16;9.80;;;7.00;;
65871;SDS011;52653;50.080;21.992;2024-02-14T15:38:09;11.60;;;7.50;;
65871;SDS011;52653;50.080;21.992;2024-02-14T15:40:51;11.50;;;7.60;;
65871;SDS011;52653;50.080;21.992;2024-02-14T15:43:52;10.40;;;6.70;;
65871;SDS011;52653;50.080;21.992;2024-02-14T15:46:45;11.80;;;7.20;;
65871;SDS011;52653;50.080;21.992;2024-02-14T15:49:38;11.20;;;7.00;;
65871;SDS011;52653;50.080;21.992;2024-02-14T15:52:30;13.30;;;7.20;;
65871;SDS011;52653;50.080;21.992;2024-02-14T15:55:22;12.90;;;8.30;;
65871;SDS011;52653;50.080;21.992;2024-02-14T15:58:04;10.90;;;7.80;;
65871;SDS011;52653;50.080;21.992;2024-02-14T16:00:57;12.10;;;8.10;;
65871;SDS011;52653;50.080;21.992;2024-02-14T16:03:50;20.70;;;13.40;;
65871;SDS011;52653;50.080;21.992;2024-02-14T16:06:34;17.00;;;12.10;;
65871;SDS011;52653;50.080;21.992;2024-02-14T16:09:27;18.70;;;12.50;;
65871;SDS011;52653;50.080;21.992;2024-02-14T16:12:26;17.70;;;12.40;;
65871;SDS011;52653;50.080;21.992;2024-02-14T16:15:26;19.80;;;14.00;;
65871;SDS011;52653;50.080;21.992;2024-02-14T16:18:21;16.30;;;11.30;;
65871;SDS011;52653;50.080;21.992;2024-02-14T16:21:16;14.90;;;10.70;;
65871;SDS011;52653;50.080;21.992;2024-02-14T16:24:09;14.50;;;9.90;;
65871;SDS011;52653;50.080;21.992;2024-02-14T16:27:02;14.40;;;10.20;;
65871;SDS011;52653;50.080;21.992;2024-02-14T16:29:55;18.10;;;10.60;;
65871;SDS011;52653;50.080;21.992;2024-02-14T16:32:48;21.10;;;11.80;;
65871;SDS011;52653;50.080;21.992;2024-02-14T16:35:41;16.70;;;10.50;;